Airfield :
LOGIN :

Register | Disclaimer

   EN    FR    IT 

 










Legend :    VFR   Marginal VFR   IFR   Intensive IFR   Very Intensive IFR
Visi :
Ceiling :
>= 8 km
>= 3000ft
5 to 8 km
1000 to 3000 ft
1500m to 5 km
500 to 1000 ft
800 to 1500m
200 to 500 ft
< 800m
< 200 ft
Symbols :   Thunderstorms  Fog  Heavy snow  Heavy precipitations  Wind > 20 kt
SIGMETs :     Misc.  Thunderstorms  Icing  Turbulence  Mountain Waves  Volcanic Ashes






- Airport Elevation : 622 ft
- IATA code : BRS


EGGD - Bristol Int.

CURRENT METAR :
  • 011350Z AUTO 07004KT 0400 R27/1000U FG VV/// 04/04 Q1028

EXPIRED METARs :
  • 011320Z AUTO 07005KT 010V090 0150 R27/0200N FG VV/// 04/04 Q1028
  • 011250Z AUTO 08003KT 0100 R27/0175N FG VV/// 04/04 Q1028
  • 011220Z AUTO VRB02KT 0100 R27/0175N FG VV/// 03/03 Q1029
  • 011150Z AUTO 07003KT 010V100 0050 R27/0150N FG VV/// 03/03 Q1029
  • 011120Z AUTO 08004KT 0100 R27/0200N FG VV/// 03/03 Q1029

TAF TAF EGGD
Valid from the 01 at 12:00 until the 02 at 12:00 UTC


011104Z 0112/0212 08004KT 0100 FG BKN001
PROB30
TEMPO 0112/0212 1500 BR BKN002
ATIS : +44 1275 473 666



MET'MAP, your aeronautical weather chart ! - Copyright ORBIFLY December 2007 - Disclaimer

ORBIFLY MET'MAP TEAM :

Programming & Development : Alexandra Zaïnal
Original concept : Baudouin d'Aumeries
Technical & hardware support : Manuel Goepfert
Assistance : Marc-Olivier Méhu




SOURCES & CREDITS :

   NOAA